Time;durP1;ratioP1;P1;durP2;ratioP2;P2;SDS_P1;SDS_P2;PMS_P1;PMS_P2;Temp;Humidity;BMP_temperature;BMP_pressure;BME280_temperature;BME280_humidity;BME280_pressure;Samples;Min_cycle;Max_cycle;Signal;HPM_P1;HPM_P2
2022/04/08 00:01:51;;;;;;;;;0.00;0.00;;;;;24.33;23.14;99982.19;5015878;28;45644;-79
2022/04/08 00:04:16;;;;;;;;;1.00;1.00;;;;;23.78;23.73;99964.09;5015536;28;45715;-80
2022/04/08 00:06:42;;;;;;;;;1.00;0.00;;;;;24.53;22.86;99970.34;5015637;28;45260;-79
2022/04/08 00:09:07;;;;;;;;;0.33;0.00;;;;;24.61;22.90;99991.66;5015807;28;45249;-78
2022/04/08 00:11:33;;;;;;;;;2.00;0.67;;;;;24.77;23.04;99983.63;4998647;28;45394;-78
2022/04/08 00:14:00;;;;;;;;;0.00;0.00;;;;;25.25;22.55;99979.22;4995155;28;46182;-78
2022/04/08 00:16:26;;;;;;;;;0.00;0.00;;;;;24.71;22.79;99964.94;4995585;28;45499;-78
2022/04/08 00:18:51;;;;;;;;;0.00;0.00;;;;;24.55;22.91;99972.97;5011017;28;45406;-79
2022/04/08 00:21:18;;;;;;;;;0.00;0.00;;;;;24.57;23.09;99968.34;4995801;28;45453;-78
2022/04/08 00:23:43;;;;;;;;;2.00;1.00;;;;;24.23;23.39;99976.38;4994281;28;47101;-79
2022/04/08 00:26:10;;;;;;;;;0.00;0.00;;;;;23.94;23.69;99967.84;5010780;28;45508;-79
2022/04/08 00:28:37;;;;;;;;;0.00;0.00;;;;;23.76;24.05;99958.75;4995331;28;45376;-79
2022/04/08 00:31:04;;;;;;;;;1.00;0.00;;;;;23.76;23.83;99952.47;4995336;28;45592;-78
2022/04/08 00:33:33;;;;;;;;;1.67;0.00;;;;;24.32;23.49;99959.63;5010891;28;47232;-79
2022/04/08 00:35:59;;;;;;;;;0.00;0.00;;;;;24.34;22.94;99942.44;4995377;28;45491;-80
2022/04/08 00:38:24;;;;;;;;;1.00;0.00;;;;;23.81;23.51;99967.56;4995504;28;45364;-78
2022/04/08 00:40:49;;;;;;;;;2.00;0.00;;;;;23.67;24.15;99947.50;4995430;28;45171;-79
2022/04/08 00:43:17;;;;;;;;;0.00;0.00;;;;;22.96;24.80;99963.34;4993736;28;47261;-80
2022/04/08 00:45:43;;;;;;;;;2.00;0.00;;;;;23.11;24.80;99955.50;4994209;28;45463;-79
2022/04/08 00:48:09;;;;;;;;;0.00;0.00;;;;;23.50;24.27;99935.66;5002386;28;45302;-79
2022/04/08 00:50:37;;;;;;;;;0.67;0.00;;;;;24.19;23.83;99944.06;5015439;28;45378;-79
2022/04/08 00:53:02;;;;;;;;;1.67;0.00;;;;;23.88;23.85;99935.66;5014716;28;45537;-78
2022/04/08 00:55:28;;;;;;;;;0.00;0.00;;;;;23.85;24.50;99946.59;5016645;28;45536;-79
2022/04/08 00:57:54;;;;;;;;;1.00;0.00;;;;;24.06;24.14;99949.22;5018223;28;45582;-79
2022/04/08 01:00:22;;;;;;;;;0.33;0.33;;;;;24.23;23.73;99948.38;5018570;28;45328;-79
2022/04/08 01:02:48;;;;;;;;;1.00;1.00;;;;;24.63;23.52;99933.69;5018316;28;45325;-79
2022/04/08 01:05:13;;;;;;;;;0.00;0.00;;;;;24.50;23.66;99919.00;5018294;28;45298;-79
2022/04/08 01:07:39;;;;;;;;;1.33;0.00;;;;;24.68;23.21;99910.88;5018655;28;45373;-79
2022/04/08 01:10:05;;;;;;;;;0.00;0.00;;;;;24.38;23.77;99936.75;5018073;28;45363;-79
2022/04/08 01:12:30;;;;;;;;;2.00;0.00;;;;;24.62;23.36;99923.78;5018433;28;46397;-79
2022/04/08 01:14:59;;;;;;;;;1.00;0.00;;;;;25.17;22.87;99933.53;5018023;28;45547;-79
2022/04/08 01:17:26;;;;;;;;;0.00;0.00;;;;;25.13;22.53;99933.75;5017130;28;45425;-79
2022/04/08 01:19:51;;;;;;;;;1.67;0.00;;;;;24.51;23.69;99923.44;5018312;28;45502;-80
2022/04/08 01:22:20;;;;;;;;;1.00;1.00;;;;;24.64;23.36;99923.69;5017849;28;45293;-78
2022/04/08 01:24:48;;;;;;;;;0.67;0.00;;;;;24.70;23.40;99930.63;5017559;28;45523;-80
2022/04/08 01:27:18;;;;;;;;;0.00;0.00;;;;;24.96;23.10;99911.16;5017620;28;45455;-79
2022/04/08 01:29:44;;;;;;;;;0.33;0.00;;;;;24.61;23.17;99908.50;5016504;28;45590;-79
2022/04/08 01:32:09;;;;;;;;;0.00;0.00;;;;;24.93;23.31;99919.44;5016291;28;47445;-78
2022/04/08 01:34:34;;;;;;;;;0.67;0.00;;;;;25.15;22.80;99910.13;5018154;28;45372;-78
2022/04/08 01:37:00;;;;;;;;;0.00;0.00;;;;;25.19;23.04;99917.16;5017807;28;45759;-78
2022/04/08 01:39:25;;;;;;;;;0.67;0.00;;;;;24.38;24.02;99922.34;5017966;28;45427;-80
2022/04/08 01:41:50;;;;;;;;;0.00;0.00;;;;;24.46;23.75;99914.69;5017793;28;46310;-79
2022/04/08 01:44:16;;;;;;;;;0.00;0.00;;;;;23.93;24.00;99914.63;5017959;28;45476;-79
2022/04/08 01:46:41;;;;;;;;;0.67;0.67;;;;;24.79;23.75;99922.00;5018060;28;45319;-78
2022/04/08 01:49:06;;;;;;;;;1.33;1.00;;;;;24.52;23.51;99891.78;5002669;28;45605;-78
2022/04/08 01:51:32;;;;;;;;;0.00;0.00;;;;;23.97;23.99;99908.09;4997821;28;45446;-78
2022/04/08 01:53:57;;;;;;;;;0.00;0.00;;;;;24.02;24.07;99910.59;4997341;28;45418;-78
2022/04/08 01:56:22;;;;;;;;;0.00;0.00;;;;;24.11;24.04;99910.09;4998190;28;45290;-78
2022/04/08 01:58:48;;;;;;;;;4.67;0.00;;;;;23.96;24.35;99903.63;4998298;28;45576;-79
2022/04/08 02:01:13;;;;;;;;;0.67;0.67;;;;;23.82;24.72;99908.81;4997495;28;46169;-78
2022/04/08 02:03:38;;;;;;;;;0.00;0.00;;;;;23.63;25.05;99903.47;4996347;28;46007;-78
2022/04/08 02:06:04;;;;;;;;;1.67;0.33;;;;;23.52;24.89;99903.97;5003203;28;45218;-79
2022/04/08 02:08:29;;;;;;;;;1.67;0.67;;;;;23.64;24.92;99888.94;5016772;28;45372;-79
2022/04/08 02:10:54;;;;;;;;;1.00;1.00;;;;;23.92;24.85;99902.06;5017390;28;47746;-79
2022/04/08 02:13:20;;;;;;;;;0.00;0.00;;;;;23.84;24.58;99889.78;5015961;28;45404;-78
2022/04/08 02:15:46;;;;;;;;;1.00;1.00;;;;;24.36;23.68;99902.53;5015954;28;45344;-79
2022/04/08 02:18:13;;;;;;;;;1.00;0.00;;;;;23.98;24.31;99884.59;5017293;28;45317;-78
2022/04/08 02:20:38;;;;;;;;;0.00;0.00;;;;;24.41;24.05;99900.47;5017427;28;45699;-78
2022/04/08 02:23:05;;;;;;;;;1.33;0.00;;;;;23.75;24.80;99899.25;5016940;28;45625;-79
2022/04/08 02:25:31;;;;;;;;;0.00;0.00;;;;;24.00;24.33;99862.84;5017549;28;45516;-79
2022/04/08 02:27:56;;;;;;;;;0.00;0.00;;;;;24.13;24.50;99874.81;5017167;28;45578;-79
2022/04/08 02:30:22;;;;;;;;;2.00;0.00;;;;;24.37;24.14;99880.78;5016988;28;45411;-78
2022/04/08 02:32:48;;;;;;;;;0.33;0.33;;;;;24.44;24.57;99894.88;5017163;28;45408;-78
2022/04/08 02:35:14;;;;;;;;;0.67;0.00;;;;;24.41;24.50;99886.94;5017212;28;45593;-78
2022/04/08 02:37:40;;;;;;;;;0.00;0.00;;;;;24.27;24.54;99877.66;5015534;28;45250;-79
2022/04/08 02:40:06;;;;;;;;;0.33;0.33;;;;;24.22;24.25;99885.19;5016690;28;47743;-78
2022/04/08 02:42:31;;;;;;;;;1.00;1.00;;;;;24.28;24.51;99878.56;5017319;28;45417;-78
2022/04/08 02:44:57;;;;;;;;;0.00;0.00;;;;;24.25;24.42;99876.88;5017044;28;45583;-78
2022/04/08 02:47:23;;;;;;;;;1.00;1.00;;;;;23.86;25.23;99882.47;5017085;28;45402;-78
2022/04/08 02:49:49;;;;;;;;;2.33;0.00;;;;;24.21;24.30;99845.47;5016821;28;45623;-78
2022/04/08 02:52:14;;;;;;;;;0.00;0.00;;;;;24.58;24.38;99864.34;5016467;28;45548;-79
2022/04/08 02:54:40;;;;;;;;;1.33;1.00;;;;;24.77;24.16;99867.84;5017098;28;45420;-79
2022/04/08 02:57:05;;;;;;;;;3.00;1.00;;;;;24.54;23.92;99847.34;5016873;28;45646;-78
2022/04/08 02:59:31;;;;;;;;;0.00;0.00;;;;;24.78;24.01;99876.84;5016877;28;46571;-79
2022/04/08 03:01:56;;;;;;;;;1.00;1.00;;;;;25.09;23.72;99865.22;5016819;28;45485;-78
2022/04/08 03:04:22;;;;;;;;;3.00;1.00;;;;;24.87;23.71;99860.09;5016407;28;45518;-78
2022/04/08 03:06:48;;;;;;;;;1.33;0.00;;;;;24.39;24.43;99840.91;5016319;28;45392;-79
2022/04/08 03:09:13;;;;;;;;;0.67;0.67;;;;;24.28;24.74;99857.75;5016217;28;46383;-79
2022/04/08 03:11:38;;;;;;;;;0.33;0.33;;;;;24.31;24.77;99835.03;5016673;28;45389;-79
2022/04/08 03:14:05;;;;;;;;;1.00;1.00;;;;;24.61;24.01;99847.94;5016263;28;45452;-78
2022/04/08 03:16:31;;;;;;;;;0.00;0.00;;;;;24.87;24.52;99854.66;5016589;28;45364;-79
2022/04/08 03:18:57;;;;;;;;;0.00;0.00;;;;;25.17;23.92;99854.81;5015144;28;46399;-78
2022/04/08 03:21:22;;;;;;;;;3.67;0.33;;;;;24.59;24.26;99837.13;5016019;28;45352;-78
2022/04/08 03:23:48;;;;;;;;;0.33;0.00;;;;;24.83;24.53;99820.50;5016563;28;45376;-78
2022/04/08 03:26:14;;;;;;;;;3.00;1.00;;;;;24.85;24.59;99842.13;5016217;28;45360;-78
2022/04/08 03:28:39;;;;;;;;;2.00;0.67;;;;;24.36;25.15;99841.09;5016107;28;45549;-79
2022/04/08 03:31:04;;;;;;;;;0.67;0.00;;;;;24.77;24.99;99823.56;5016077;28;45520;-79
2022/04/08 03:33:30;;;;;;;;;0.00;0.00;;;;;25.05;25.01;99831.06;5016393;28;45449;-79
2022/04/08 03:35:55;;;;;;;;;1.00;1.00;;;;;25.14;24.84;99835.94;5016151;28;45478;-79
2022/04/08 03:38:20;;;;;;;;;0.00;0.00;;;;;25.24;24.46;99841.72;5016121;28;46433;-78
2022/04/08 03:40:48;;;;;;;;;1.00;0.00;;;;;25.29;24.40;99823.34;5016087;28;45365;-79
2022/04/08 03:43:13;;;;;;;;;4.00;0.00;;;;;25.71;24.37;99833.69;5015850;28;45423;-79
2022/04/08 03:45:38;;;;;;;;;1.00;1.00;;;;;25.70;24.65;99821.94;5016048;28;45747;-78
2022/04/08 03:48:04;;;;;;;;;1.00;1.00;;;;;25.95;24.30;99829.53;5015802;28;50347;-79
2022/04/08 03:50:30;;;;;;;;;1.00;1.00;;;;;25.70;25.02;99810.22;5015744;28;45533;-79
2022/04/08 03:52:55;;;;;;;;;1.33;0.00;;;;;25.62;25.54;99802.50;5015921;28;45324;-80
2022/04/08 03:55:21;;;;;;;;;1.00;0.00;;;;;25.60;26.03;99808.03;5015683;28;45391;-79
2022/04/08 03:57:47;;;;;;;;;1.00;0.00;;;;;25.40;26.48;99798.34;5015623;28;46302;-79
2022/04/08 04:00:13;;;;;;;;;2.00;0.67;;;;;25.55;26.11;99791.13;5015504;28;45322;-79
2022/04/08 04:02:38;;;;;;;;;1.00;1.00;;;;;25.66;26.56;99790.50;5015807;28;45283;-79
2022/04/08 04:05:04;;;;;;;;;1.67;1.00;;;;;25.79;26.37;99793.34;5015584;28;45473;-80
2022/04/08 04:07:32;;;;;;;;;0.33;0.00;;;;;25.57;26.82;99778.34;5015362;28;45638;-79
2022/04/08 04:09:59;;;;;;;;;1.00;1.00;;;;;25.42;26.93;99752.09;5015669;28;45517;-79
2022/04/08 04:12:26;;;;;;;;;1.00;1.00;;;;;25.84;26.45;99764.06;5015837;28;46438;-79
2022/04/08 04:14:52;;;;;;;;;4.00;1.00;;;;;25.59;26.45;99707.63;5015606;28;45352;-79
2022/04/08 04:17:18;;;;;;;;;1.00;0.33;;;;;25.75;26.87;99751.03;5015182;28;46314;-79
2022/04/08 04:19:44;;;;;;;;;4.00;3.00;;;;;25.37;27.06;99737.91;5013875;28;45392;-79
2022/04/08 04:22:09;;;;;;;;;3.67;2.00;;;;;25.60;27.06;99726.56;5015520;28;45364;-79
2022/04/08 04:24:34;;;;;;;;;2.67;0.00;;;;;25.88;26.98;99741.19;5015496;28;45486;-79
2022/04/08 04:27:00;;;;;;;;;1.67;1.67;;;;;26.02;26.98;99713.19;5015346;28;45412;-79
2022/04/08 04:29:25;;;;;;;;;1.00;1.00;;;;;26.20;26.70;99716.59;5015317;28;45443;-79
2022/04/08 04:31:51;;;;;;;;;4.33;2.00;;;;;26.06;26.93;99712.03;5017634;28;45737;-79
2022/04/08 04:34:17;;;;;;;;;2.67;1.00;;;;;26.25;26.71;99702.72;5017343;28;45396;-79
2022/04/08 04:36:42;;;;;;;;;1.33;1.33;;;;;26.26;26.67;99694.47;5018781;28;46373;-79
2022/04/08 04:39:08;;;;;;;;;3.33;2.00;;;;;26.21;26.90;99690.28;5034317;28;45276;-79
2022/04/08 04:41:33;;;;;;;;;2.33;1.33;;;;;26.53;26.22;99690.94;5018840;28;45566;-79
2022/04/08 04:43:58;;;;;;;;;0.67;0.67;;;;;26.50;26.20;99680.28;5017426;28;45594;-79
2022/04/08 04:46:24;;;;;;;;;1.67;1.00;;;;;26.76;25.68;99688.63;5018328;28;45494;-79
2022/04/08 04:48:49;;;;;;;;;2.33;2.33;;;;;26.75;26.25;99676.88;5018529;28;45328;-80
2022/04/08 04:51:16;;;;;;;;;1.00;1.00;;;;;26.93;25.80;99674.75;5018701;28;45393;-80
2022/04/08 04:53:42;;;;;;;;;1.00;1.00;;;;;27.01;25.50;99666.09;5017424;28;45315;-79
2022/04/08 04:56:07;;;;;;;;;1.00;1.00;;;;;27.04;25.75;99653.13;5018610;28;46259;-79
2022/04/08 04:58:33;;;;;;;;;3.00;3.00;;;;;27.05;25.74;99657.59;5018501;28;45458;-80
2022/04/08 05:00:58;;;;;;;;;3.33;1.00;;;;;27.25;25.40;99649.94;5018663;28;45428;-80
2022/04/08 05:03:24;;;;;;;;;1.00;1.00;;;;;27.52;25.53;99636.31;5018260;28;45219;-80
2022/04/08 05:05:51;;;;;;;;;4.00;1.00;;;;;27.54;25.24;99636.22;5017390;28;45499;-78
2022/04/08 05:08:16;;;;;;;;;1.67;1.00;;;;;27.69;25.36;99621.50;5016330;28;45349;-78
2022/04/08 05:10:41;;;;;;;;;5.00;2.00;;;;;26.95;25.98;99626.53;5003468;28;45430;-80
2022/04/08 05:13:07;;;;;;;;;4.00;2.00;;;;;26.84;26.11;99632.69;5000767;28;45435;-77
2022/04/08 05:15:37;;;;;;;;;0.00;0.00;;;;;26.83;25.92;99611.91;5010509;28;47969;-79
2022/04/08 05:18:03;;;;;;;;;2.00;1.00;;;;;27.03;25.92;99613.28;5016464;28;45365;-77
2022/04/08 05:20:28;;;;;;;;;2.33;1.00;;;;;27.21;26.03;99586.66;5001309;28;45558;-77
2022/04/08 05:22:53;;;;;;;;;2.00;2.00;;;;;27.26;25.53;99589.06;4998473;28;45494;-77
2022/04/08 05:25:19;;;;;;;;;1.00;1.00;;;;;27.25;25.26;99603.66;4997670;28;47061;-77
2022/04/08 05:27:45;;;;;;;;;1.33;1.00;;;;;27.17;25.74;99584.25;5017692;28;45461;-77
2022/04/08 05:30:13;;;;;;;;;4.00;2.00;;;;;27.31;25.46;99569.66;5017568;28;45355;-78
2022/04/08 05:32:39;;;;;;;;;5.67;3.00;;;;;27.18;25.51;99529.66;5040259;28;45574;-78
2022/04/08 05:35:05;;;;;;;;;2.67;2.67;;;;;27.68;25.26;99580.75;5017763;28;45924;-78
2022/04/08 05:37:30;;;;;;;;;2.00;2.00;;;;;27.24;25.44;99549.28;5017643;28;45471;-76
2022/04/08 05:39:56;;;;;;;;;5.67;3.00;;;;;27.51;25.41;99574.63;5016102;28;45442;-79
2022/04/08 05:42:21;;;;;;;;;3.00;3.00;;;;;27.68;25.24;99580.75;5016642;28;45534;-77
2022/04/08 05:44:47;;;;;;;;;5.00;4.00;;;;;27.63;25.51;99575.59;5011043;28;46475;-77
2022/04/08 05:47:12;;;;;;;;;2.00;1.00;;;;;27.44;25.32;99558.81;5016502;28;45178;-77
2022/04/08 05:49:37;;;;;;;;;4.00;2.00;;;;;27.63;25.62;99564.69;5031178;28;45450;-77
2022/04/08 05:52:04;;;;;;;;;2.33;2.00;;;;;27.45;25.43;99536.06;5009487;28;45350;-77
2022/04/08 05:54:30;;;;;;;;;3.00;3.00;;;;;27.64;25.74;99549.25;5016916;28;45648;-76
2022/04/08 05:56:57;;;;;;;;;2.00;2.00;;;;;27.38;25.44;99546.50;5017474;28;45522;-77
2022/04/08 05:59:23;;;;;;;;;4.00;2.00;;;;;27.54;25.61;99508.16;5017688;28;45346;-79
2022/04/08 06:01:48;;;;;;;;;3.00;3.00;;;;;27.62;25.60;99508.47;5004765;28;45530;-76
2022/04/08 06:04:13;;;;;;;;;2.00;2.00;;;;;27.80;25.08;99513.56;4997305;28;55431;-77
2022/04/08 06:06:42;;;;;;;;;2.00;2.00;;;;;28.01;25.28;99511.16;5012527;28;45473;-76
2022/04/08 06:09:08;;;;;;;;;2.00;2.00;;;;;27.84;25.18;99504.19;5012723;28;45440;-77
2022/04/08 06:11:34;;;;;;;;;2.00;2.00;;;;;27.79;25.12;99506.38;4996091;28;45317;-76
2022/04/08 06:13:59;;;;;;;;;4.00;1.33;;;;;27.84;25.18;99493.28;4996485;28;46439;-77
2022/04/08 06:16:25;;;;;;;;;3.00;2.00;;;;;27.99;25.01;99492.19;4995643;28;45596;-77
2022/04/08 06:18:50;;;;;;;;;4.00;3.00;;;;;28.06;25.36;99487.16;4996522;28;45532;-76
2022/04/08 06:21:16;;;;;;;;;3.00;3.00;;;;;28.27;25.07;99476.50;4996343;28;45681;-77
2022/04/08 06:23:41;;;;;;;;;2.00;2.00;;;;;28.36;24.62;99466.75;5010781;28;47714;-77
2022/04/08 06:26:06;;;;;;;;;5.33;4.00;;;;;28.40;24.93;99468.25;4996432;28;45483;-76
2022/04/08 06:28:32;;;;;;;;;4.00;2.00;;;;;28.30;25.13;99449.00;4996569;28;45479;-77
2022/04/08 06:30:57;;;;;;;;;3.33;2.67;;;;;28.33;24.52;99448.75;4996544;28;45583;-76
2022/04/08 06:33:23;;;;;;;;;3.67;3.00;;;;;28.14;24.89;99442.94;4996870;28;46451;-76
2022/04/08 06:35:48;;;;;;;;;3.33;3.33;;;;;28.09;25.03;99426.94;4996810;28;45508;-77
2022/04/08 06:38:15;;;;;;;;;5.33;4.00;;;;;28.20;24.95;99439.78;4997594;28;45408;-76
2022/04/08 06:40:40;;;;;;;;;4.33;3.00;;;;;28.29;24.89;99436.34;5013795;28;45302;-77
2022/04/08 06:43:07;;;;;;;;;4.33;3.33;;;;;28.13;24.89;99430.31;5014753;28;47309;-77
2022/04/08 06:45:32;;;;;;;;;4.00;3.00;;;;;28.13;25.09;99428.47;5015033;28;45410;-77
2022/04/08 06:47:58;;;;;;;;;5.00;4.00;;;;;27.92;25.25;99410.94;5016832;28;45384;-76
2022/04/08 06:50:25;;;;;;;;;4.67;3.00;;;;;27.98;25.11;99433.16;5016840;28;45518;-76
2022/04/08 06:52:51;;;;;;;;;5.00;3.67;;;;;27.73;25.16;99423.22;5016054;28;45564;-76
2022/04/08 06:55:17;;;;;;;;;5.00;2.00;;;;;27.61;25.43;99421.38;5031664;28;46140;-77
2022/04/08 06:57:43;;;;;;;;;1.00;1.00;;;;;27.59;25.32;99418.78;5016482;28;45522;-76
2022/04/08 07:00:11;;;;;;;;;5.67;2.67;;;;;27.58;25.77;99416.16;5016194;28;45457;-77
2022/04/08 07:02:36;;;;;;;;;5.00;4.00;;;;;27.77;25.41;99416.56;5016230;28;46474;-76
2022/04/08 07:05:03;;;;;;;;;5.67;3.00;;;;;27.95;25.22;99418.91;5031694;28;45809;-77
2022/04/08 07:07:31;;;;;;;;;3.67;2.00;;;;;28.01;25.05;99422.06;5016481;28;45259;-77
2022/04/08 07:09:57;;;;;;;;;6.00;5.00;;;;;27.79;25.41;99405.53;5016162;28;45498;-77
2022/04/08 07:12:24;;;;;;;;;4.00;4.00;;;;;27.81;25.37;99425.41;5016207;28;45466;-76
2022/04/08 07:14:50;;;;;;;;;4.33;4.33;;;;;27.87;25.25;99406.69;5015564;28;45320;-77
2022/04/08 07:17:15;;;;;;;;;1.33;1.00;;;;;27.85;25.10;99400.50;5012399;28;45404;-77
2022/04/08 07:19:40;;;;;;;;;2.00;2.00;;;;;27.76;25.30;99400.31;5001155;28;45541;-77
2022/04/08 07:22:06;;;;;;;;;5.00;3.00;;;;;27.69;25.28;99399.91;5014317;28;52252;-77
2022/04/08 07:24:31;;;;;;;;;4.00;4.00;;;;;27.56;25.30;99397.22;5008314;28;46811;-77
2022/04/08 07:26:56;;;;;;;;;3.67;3.00;;;;;27.64;25.10;99405.69;5011302;28;45397;-77
2022/04/08 07:29:22;;;;;;;;;3.00;3.00;;;;;27.84;25.31;99385.13;5027286;28;45596;-77
2022/04/08 07:31:47;;;;;;;;;2.00;2.00;;;;;27.78;25.63;99379.28;5010777;28;48608;-76
2022/04/08 07:34:12;;;;;;;;;5.00;4.33;;;;;27.80;25.28;99377.31;5016468;28;45333;-76
2022/04/08 07:36:38;;;;;;;;;4.67;3.33;;;;;27.79;25.26;99367.38;5009216;28;45449;-76
2022/04/08 07:39:03;;;;;;;;;4.00;2.67;;;;;27.88;25.18;99364.84;5004775;28;45433;-74
2022/04/08 07:41:29;;;;;;;;;4.00;2.00;;;;;27.84;25.34;99367.94;5010881;28;47884;-76
2022/04/08 07:43:55;;;;;;;;;1.00;1.00;;;;;27.63;25.47;99359.50;5001769;28;45383;-75
2022/04/08 07:46:21;;;;;;;;;1.00;1.00;;;;;27.27;25.53;99325.78;5010059;28;45477;-75
2022/04/08 07:48:46;;;;;;;;;1.00;1.00;;;;;26.93;26.19;99288.28;5012924;28;45507;-76
2022/04/08 07:51:11;;;;;;;;;1.67;0.33;;;;;27.11;26.33;99326.06;5008871;28;45375;-76
2022/04/08 07:53:37;;;;;;;;;2.67;1.67;;;;;27.14;26.15;99309.50;5003349;28;45337;-76
2022/04/08 07:56:02;;;;;;;;;1.00;1.00;;;;;27.23;25.82;99308.81;5008574;28;45321;-76
2022/04/08 07:58:28;;;;;;;;;1.67;0.00;;;;;27.08;25.59;99280.88;5010271;28;45655;-76
2022/04/08 08:00:54;;;;;;;;;0.33;0.00;;;;;27.04;25.76;99263.88;5001912;28;46299;-76
2022/04/08 08:03:20;;;;;;;;;0.33;0.00;;;;;27.10;25.96;99292.53;5001079;28;45902;-76
2022/04/08 08:05:45;;;;;;;;;1.00;1.00;;;;;27.08;25.72;99288.19;5012563;28;45676;-76
2022/04/08 08:08:10;;;;;;;;;3.00;2.00;;;;;27.06;25.91;99307.34;5009902;28;45823;-76
2022/04/08 08:10:36;;;;;;;;;0.67;0.67;;;;;27.13;26.03;99310.47;5013644;28;45457;-76
2022/04/08 08:13:02;;;;;;;;;2.00;1.00;;;;;27.12;25.88;99300.56;5007897;28;45463;-76
2022/04/08 08:15:30;;;;;;;;;1.33;1.33;;;;;27.03;26.02;99302.09;5010181;28;45487;-76
2022/04/08 08:17:58;;;;;;;;;1.33;0.00;;;;;26.98;25.96;99269.78;5011148;28;45581;-76
2022/04/08 08:20:25;;;;;;;;;3.00;1.67;;;;;27.04;25.61;99282.94;5010444;28;45392;-76
2022/04/08 08:22:51;;;;;;;;;2.00;0.67;;;;;26.88;25.68;99260.56;5010441;28;45384;-76
2022/04/08 08:25:18;;;;;;;;;1.33;1.33;;;;;26.88;25.92;99246.94;5002105;28;45374;-76
2022/04/08 08:27:45;;;;;;;;;3.67;1.00;;;;;26.76;26.12;99213.31;5019110;28;45329;-76
2022/04/08 08:30:14;;;;;;;;;2.00;1.00;;;;;26.78;26.29;99211.38;5002365;28;45341;-76
2022/04/08 08:32:40;;;;;;;;;1.00;1.00;;;;;26.72;26.13;99222.69;5001770;28;45647;-75
2022/04/08 08:35:10;;;;;;;;;1.00;1.00;;;;;26.72;26.20;99217.25;5001610;28;45786;-76
2022/04/08 08:37:36;;;;;;;;;5.00;1.00;;;;;26.76;25.92;99220.63;5005016;28;45614;-76
2022/04/08 08:40:03;;;;;;;;;3.67;2.33;;;;;26.64;25.65;99204.19;5010399;28;47118;-75
2022/04/08 08:42:29;;;;;;;;;1.00;1.00;;;;;26.65;26.18;99219.53;5007805;28;45519;-75
2022/04/08 08:44:55;;;;;;;;;2.67;1.67;;;;;26.49;26.02;99214.31;5005881;28;45511;-75
2022/04/08 08:47:21;;;;;;;;;1.00;1.00;;;;;26.53;25.98;99190.50;5010955;28;45895;-76
2022/04/08 08:49:52;;;;;;;;;1.67;1.67;;;;;26.55;26.14;99193.97;5011127;28;48137;-76
2022/04/08 08:52:18;;;;;;;;;1.33;1.33;;;;;26.31;26.51;99174.84;5012825;28;45496;-76
2022/04/08 08:54:45;;;;;;;;;3.33;1.67;;;;;26.39;26.04;99196.94;5003680;28;45542;-76
2022/04/08 08:57:13;;;;;;;;;2.00;2.00;;;;;26.36;26.42;99180.84;5023014;28;45511;-76
2022/04/08 08:59:38;;;;;;;;;2.00;2.00;;;;;26.27;26.23;99176.06;5005504;28;45569;-76
2022/04/08 09:02:04;;;;;;;;;1.00;1.00;;;;;26.49;25.96;99159.06;5006809;28;45489;-75
2022/04/08 09:04:30;;;;;;;;;1.33;1.33;;;;;26.51;25.86;99162.53;5007377;28;45485;-76
2022/04/08 09:06:56;;;;;;;;;4.33;1.67;;;;;26.49;25.92;99167.22;5008578;28;45488;-76
2022/04/08 09:09:32;;;;;;;;;2.67;2.00;;;;;26.45;25.88;99157.56;5006619;28;45514;-76
2022/04/08 09:12:17;;;;;;;;;1.67;1.67;;;;;26.33;26.14;99121.25;5026824;28;45497;-75
2022/04/08 09:14:56;;;;;;;;;4.67;3.00;;;;;26.60;25.64;99151.00;5001592;28;45510;-76
2022/04/08 09:17:26;;;;;;;;;2.00;1.00;;;;;26.65;25.48;99165.13;5006539;28;45297;-76
2022/04/08 09:19:56;;;;;;;;;2.00;1.67;;;;;26.50;26.19;99125.47;5008567;28;45717;-76
2022/04/08 09:22:26;;;;;;;;;1.00;1.00;;;;;26.21;25.64;99082.22;5014155;28;45505;-76
2022/04/08 09:24:51;;;;;;;;;1.00;1.00;;;;;26.11;26.00;99062.16;5015958;28;45522;-76
2022/04/08 09:27:16;;;;;;;;;2.00;2.00;;;;;26.16;25.78;99071.69;5010509;28;45604;-76
2022/04/08 09:29:44;;;;;;;;;1.67;1.33;;;;;26.16;26.23;99049.94;5008346;28;46199;-76
2022/04/08 09:32:15;;;;;;;;;6.00;2.00;;;;;26.23;26.12;99053.09;5014812;28;45343;-76
2022/04/08 09:34:42;;;;;;;;;2.67;2.00;;;;;26.32;26.16;99067.84;5017417;28;45444;-77
2022/04/08 09:37:12;;;;;;;;;4.00;3.00;;;;;26.32;26.03;99062.41;5012719;28;46092;-77
2022/04/08 09:40:00;;;;;;;;;4.33;2.00;;;;;26.14;26.20;99046.47;5003834;28;47042;-78
2022/04/08 09:42:42;;;;;;;;;1.00;1.00;;;;;26.17;26.12;99069.84;5011792;28;45732;-76
2022/04/08 09:45:09;;;;;;;;;1.33;1.33;;;;;26.22;26.52;99069.53;5022614;28;45602;-78
2022/04/08 09:47:34;;;;;;;;;1.00;1.00;;;;;26.18;26.07;99094.19;5026390;28;45591;-78
2022/04/08 09:50:00;;;;;;;;;2.00;2.00;;;;;26.13;25.94;99069.22;5013266;28;46879;-76
2022/04/08 09:52:26;;;;;;;;;1.67;1.67;;;;;26.14;26.21;99080.94;5002370;28;52268;-78
2022/04/08 09:54:53;;;;;;;;;2.00;2.00;;;;;26.39;26.34;99104.50;5018192;28;45451;-76
2022/04/08 09:57:19;;;;;;;;;1.00;1.00;;;;;25.99;26.01;99067.44;5014712;28;45410;-77
2022/04/08 09:59:53;;;;;;;;;1.00;1.00;;;;;25.78;26.35;99049.97;5014601;28;45532;-75
2022/04/08 10:02:19;;;;;;;;;1.00;1.00;;;;;25.95;26.24;99106.69;5007992;28;45353;-77
2022/04/08 10:04:44;;;;;;;;;0.33;0.33;;;;;25.70;26.51;99109.41;5009403;28;45649;-77
2022/04/08 10:07:11;;;;;;;;;2.00;2.00;;;;;25.48;26.79;99016.75;5012482;28;45603;-77
2022/04/08 10:09:54;;;;;;;;;1.00;1.00;;;;;25.93;26.39;99051.56;5015784;28;46074;-78
2022/04/08 10:12:42;;;;;;;;;2.67;1.67;;;;;25.82;26.59;99019.78;4995200;28;47414;-79
2022/04/08 10:15:14;;;;;;;;;1.00;1.00;;;;;25.89;26.73;99003.00;5018081;28;45461;-78
2022/04/08 10:17:40;;;;;;;;;1.00;1.00;;;;;25.56;26.13;99004.47;5017079;28;46021;-80
2022/04/08 10:20:18;;;;;;;;;1.33;1.00;;;;;25.54;26.38;99145.78;5014974;28;46367;-80
2022/04/08 10:22:44;;;;;;;;;1.33;1.33;;;;;25.10;26.68;99090.78;5023059;28;45633;-79
2022/04/08 10:25:17;;;;;;;;;0.00;0.00;;;;;25.34;26.84;99091.00;5011767;28;46312;-79
2022/04/08 10:27:44;;;;;;;;;2.33;1.00;;;;;25.17;26.65;99081.28;5019557;28;45908;-79
2022/04/08 10:30:10;;;;;;;;;1.00;1.00;;;;;25.00;27.13;99030.84;5008441;28;46859;-77
2022/04/08 10:32:38;;;;;;;;;1.00;1.00;;;;;25.29;26.75;99074.13;5017137;28;46302;-80
2022/04/08 10:35:19;;;;;;;;;2.00;1.00;;;;;25.04;27.38;98992.69;5007540;28;45485;-79
2022/04/08 10:38:04;;;;;;;;;0.00;0.00;;;;;25.17;27.20;99031.56;4991222;28;45697;-79
2022/04/08 10:40:40;;;;;;;;;1.00;1.00;;;;;25.60;26.74;99028.56;5006385;28;48230;-80
2022/04/08 10:43:08;;;;;;;;;1.00;1.00;;;;;25.59;26.98;99051.28;5015557;28;46203;-82
2022/04/08 10:45:34;;;;;;;;;2.00;2.00;;;;;25.28;27.04;99026.25;5011590;28;45709;-80
2022/04/08 10:48:18;;;;;;;;;3.00;3.00;;;;;25.27;26.90;98972.94;5004679;28;45511;-80
2022/04/08 10:50:43;;;;;;;;;3.00;3.00;;;;;25.60;27.02;99011.44;5005308;28;48341;-80
2022/04/08 10:53:14;;;;;;;;;3.00;3.00;;;;;24.75;26.35;98831.00;4994534;28;46332;-80
2022/04/08 10:56:12;;;;;;;;;2.00;2.00;;;;;25.57;26.78;98931.03;4998551;28;46508;-80
2022/04/08 10:58:48;;;;;;;;;2.33;2.33;;;;;25.40;26.50;98863.50;4999657;28;45526;-80
2022/04/08 11:01:15;;;;;;;;;2.00;2.00;;;;;26.02;26.44;98942.25;4999360;28;45496;-80
2022/04/08 11:03:46;;;;;;;;;1.67;1.67;;;;;26.19;26.25;98943.72;4991512;28;45554;-80
2022/04/08 11:06:17;;;;;;;;;2.00;2.00;;;;;25.89;26.05;98884.34;4993842;28;45496;-80
2022/04/08 11:08:43;;;;;;;;;2.00;1.00;;;;;26.06;26.32;98888.56;4993608;28;45444;-80
2022/04/08 11:11:09;;;;;;;;;3.00;2.00;;;;;25.98;25.98;98910.81;5001307;28;46597;-81
2022/04/08 11:13:35;;;;;;;;;4.00;3.00;;;;;25.68;26.56;98933.84;5001129;28;45477;-80
2022/04/08 11:16:00;;;;;;;;;1.00;1.00;;;;;25.74;26.01;98954.25;4998912;28;47440;-80
2022/04/08 11:18:26;;;;;;;;;2.00;2.00;;;;;25.78;26.57;98919.56;4997041;28;45814;-81
2022/04/08 11:20:51;;;;;;;;;2.00;1.00;;;;;26.01;26.34;98994.84;4997845;28;48254;-81
2022/04/08 11:23:27;;;;;;;;;2.00;2.00;;;;;26.08;26.50;98975.41;4994945;28;46133;-81
2022/04/08 11:25:53;;;;;;;;;4.00;2.00;;;;;26.09;26.15;98944.50;4999180;28;45478;-80
2022/04/08 11:28:22;;;;;;;;;3.00;2.00;;;;;26.26;26.23;98990.34;5002482;28;45501;-79
2022/04/08 11:30:58;;;;;;;;;3.00;1.67;;;;;26.38;26.35;98977.66;5005503;28;46316;-80
2022/04/08 11:33:24;;;;;;;;;3.33;2.00;;;;;26.13;26.41;98951.44;4998320;28;45610;-82